Terminal Aerodrome Forecast
Issued by NWS

Home | Current Version | Previous Version | Text Only | Print | Product List | Glossary On
Versions: 1 2 3 4 5 6 7 8 9 10 11 12 13 14 15 16
137
FTUS46 KSTO 221137
TAFMHR
TAF
KMHR 221137Z 2212/2312 15025G40KT P6SM -RA OVC040
     FM221500 16020G30KT P6SM -RA OVC040
     FM221800 18015KT P6SM -SHRA OVC040
     FM222100 18010KT P6SM VCTS OVC040CB
     FM230600 18010KT P6SM -SHRA OVC030=

USA.gov is the U.S. government's official web portal to all federal, state and local government web resources and services.